Time;durP1;ratioP1;P1;durP2;ratioP2;P2;SDS_P1;SDS_P2;PMS_P1;PMS_P2;Temp;Humidity;BMP_temperature;BMP_pressure;BME280_temperature;BME280_humidity;BME280_pressure;Samples;Min_cycle;Max_cycle;Signal;HPM_P1;HPM_P2
2023/12/16 00:00:44;;;;;;;21.98;2.80;;;;;;;-8.51;74.55;99540.56;4951934;28;20043;-53
2023/12/16 00:03:11;;;;;;;11.25;3.35;;;;;;;-8.48;75.32;99543.22;4941553;29;20547;-54
2023/12/16 00:05:37;;;;;;;21.20;3.20;;;;;;;-8.43;75.22;99543.41;4939440;29;20109;-54
2023/12/16 00:08:03;;;;;;;14.48;3.05;;;;;;;-8.37;75.31;99546.16;4949503;29;20071;-54
2023/12/16 00:10:29;;;;;;;12.95;2.88;;;;;;;-8.35;74.69;99540.34;4934879;29;20042;-53
2023/12/16 00:12:55;;;;;;;14.85;3.30;;;;;;;-8.33;75.16;99542.94;4934721;29;20121;-53
2023/12/16 00:15:21;;;;;;;7.60;2.85;;;;;;;-8.24;75.23;99541.59;4919026;29;20539;-54
2023/12/16 00:17:47;;;;;;;9.70;3.28;;;;;;;-8.07;75.43;99542.22;4934755;29;20054;-55
2023/12/16 00:20:13;;;;;;;8.35;2.78;;;;;;;-7.93;74.75;99545.25;4903608;29;20138;-55
2023/12/16 00:22:39;;;;;;;8.55;2.80;;;;;;;-8.22;74.80;99501.31;4935095;29;20046;-55
2023/12/16 00:25:07;;;;;;;11.55;3.40;;;;;;;-8.01;74.73;99546.63;4919098;29;20035;-50
2023/12/16 00:27:33;;;;;;;17.20;3.55;;;;;;;-8.07;75.14;99541.38;4921297;29;20043;-54
2023/12/16 00:29:58;;;;;;;6.82;2.90;;;;;;;-8.10;74.55;99542.09;4947114;28;20050;-54
2023/12/16 00:32:24;;;;;;;8.18;2.25;;;;;;;-8.01;74.77;99550.03;4947911;29;20582;-55
2023/12/16 00:34:50;;;;;;;13.27;2.83;;;;;;;-7.96;75.07;99546.00;4948050;29;20047;-56
2023/12/16 00:37:16;;;;;;;10.35;2.70;;;;;;;-8.03;74.65;99526.41;4930843;29;20051;-55
2023/12/16 00:39:42;;;;;;;14.48;3.67;;;;;;;-8.12;74.77;99508.41;4941166;29;20544;-53
2023/12/16 00:42:08;;;;;;;15.73;3.67;;;;;;;-7.94;74.81;99566.22;4923346;29;20125;-51
2023/12/16 00:44:34;;;;;;;6.70;2.28;;;;;;;-7.87;75.22;99560.59;4947332;29;20042;-55
2023/12/16 00:47:00;;;;;;;15.57;3.05;;;;;;;-8.14;74.73;99517.56;4940660;28;20035;-55
2023/12/16 00:49:27;;;;;;;11.63;3.03;;;;;;;-8.04;75.08;99516.25;4929227;29;20047;-55
2023/12/16 00:51:55;;;;;;;11.73;2.72;;;;;;;-7.92;74.77;99516.69;4914668;29;20043;-54
2023/12/16 00:54:21;;;;;;;12.82;2.65;;;;;;;-7.68;74.62;99557.91;4947313;29;20039;-57
2023/12/16 00:56:47;;;;;;;6.07;2.50;;;;;;;-7.72;74.51;99556.09;4949250;29;20077;-57
2023/12/16 00:59:13;;;;;;;18.38;2.78;;;;;;;-7.64;75.10;99562.25;4934324;29;20039;-55
2023/12/16 01:01:39;;;;;;;17.70;3.45;;;;;;;-7.74;75.04;99567.78;4951550;29;20058;-57
2023/12/16 01:04:05;;;;;;;11.30;3.65;;;;;;;-7.72;74.59;99566.19;4934919;28;20051;-54
2023/12/16 01:06:31;;;;;;;12.80;3.20;;;;;;;-8.17;74.61;99523.38;4969072;28;20042;-57
2023/12/16 01:08:57;;;;;;;13.35;2.95;;;;;;;-8.02;74.70;99568.47;4970781;28;20039;-53
2023/12/16 01:11:23;;;;;;;13.20;2.85;;;;;;;-8.01;74.80;99562.63;4971153;28;20042;-57
2023/12/16 01:13:50;;;;;;;7.45;2.90;;;;;;;-7.89;74.72;99575.66;4971624;28;20042;-54
2023/12/16 01:16:16;;;;;;;15.27;2.83;;;;;;;-7.92;75.17;99575.56;4956312;28;20078;-53
2023/12/16 01:18:41;;;;;;;18.15;2.67;;;;;;;-7.83;74.97;99575.03;4951132;29;20031;-56
2023/12/16 01:21:08;;;;;;;14.43;2.75;;;;;;;-7.87;74.87;99579.13;4951184;29;20054;-59
2023/12/16 01:23:35;;;;;;;6.45;2.42;;;;;;;-7.81;75.24;99566.75;4951154;29;20590;-51
2023/12/16 01:26:01;;;;;;;17.15;3.08;;;;;;;-7.66;75.12;99578.19;4950984;29;20159;-54
2023/12/16 01:28:26;;;;;;;12.82;2.80;;;;;;;-7.55;75.15;99584.47;4950859;29;20075;-54
2023/12/16 01:30:52;;;;;;;13.45;2.30;;;;;;;-7.48;74.75;99588.91;4954560;28;20043;-55
2023/12/16 01:33:18;;;;;;;14.10;3.45;;;;;;;-7.45;74.58;99586.50;4952956;28;20034;-56
2023/12/16 01:35:44;;;;;;;10.73;2.53;;;;;;;-7.47;74.56;99583.06;4952984;28;20047;-58
2023/12/16 01:38:10;;;;;;;11.45;2.85;;;;;;;-7.29;74.73;99596.34;4934990;29;20039;-52
2023/12/16 01:40:37;;;;;;;8.55;2.53;;;;;;;-7.20;74.47;99603.38;4933800;29;20221;-56
2023/12/16 01:43:10;;;;;;;16.75;2.83;;;;;;;-7.08;74.73;99602.13;4933519;29;20043;-54
2023/12/16 01:45:36;;;;;;;7.75;2.63;;;;;;;-7.02;74.33;99607.41;4933691;29;20844;-54
2023/12/16 01:48:03;;;;;;;15.07;2.92;;;;;;;-7.34;74.26;99557.44;4951441;28;20154;-53
2023/12/16 01:50:30;;;;;;;7.80;2.67;;;;;;;-7.19;73.99;99574.78;4955160;28;20047;-52
2023/12/16 01:52:56;;;;;;;7.55;2.42;;;;;;;-6.87;74.05;99622.22;4918026;29;20536;-53
2023/12/16 01:55:22;;;;;;;7.18;2.70;;;;;;;-6.79;73.86;99619.91;4933346;29;20507;-53
2023/12/16 01:57:48;;;;;;;14.80;2.65;;;;;;;-6.72;73.81;99627.75;4950903;29;20070;-49
2023/12/16 02:00:20;;;;;;;9.55;2.60;;;;;;;-6.77;73.62;99638.53;4933468;29;20050;-57
2023/12/16 02:02:49;;;;;;;17.38;3.35;;;;;;;-7.01;73.70;99633.50;4933379;29;20046;-57
2023/12/16 02:05:15;;;;;;;16.27;3.40;;;;;;;-7.06;73.89;99632.47;4917586;29;20043;-56
2023/12/16 02:07:44;;;;;;;19.05;2.63;;;;;;;-7.35;73.84;99581.84;4933264;29;20087;-53
2023/12/16 02:10:10;;;;;;;10.48;2.28;;;;;;;-6.90;73.48;99650.75;4950485;29;20039;-57
2023/12/16 02:12:36;;;;;;;19.63;2.92;;;;;;;-6.89;73.94;99644.03;4933520;29;20073;-57
2023/12/16 02:15:03;;;;;;;12.52;2.80;;;;;;;-6.81;73.76;99657.78;4949879;29;20050;-55
2023/12/16 02:17:37;;;;;;;12.98;2.85;;;;;;;-6.92;73.82;99654.91;4930526;29;20086;-58
2023/12/16 02:20:22;;;;;;;9.50;1.95;;;;;;;-6.96;73.45;99657.28;4934621;29;20137;-53
2023/12/16 02:22:49;;;;;;;11.13;2.70;;;;;;;-6.75;73.80;99663.03;4917152;29;20570;-50
2023/12/16 02:25:15;;;;;;;16.50;3.28;;;;;;;-6.66;74.06;99659.97;4917550;29;20167;-53
2023/12/16 02:27:42;;;;;;;10.43;2.50;;;;;;;-6.56;74.12;99652.75;4933754;29;20043;-54
2023/12/16 02:30:09;;;;;;;9.35;2.92;;;;;;;-6.47;73.86;99654.69;4954253;29;20078;-52
2023/12/16 02:32:35;;;;;;;10.27;2.83;;;;;;;-6.69;73.95;99632.03;4921403;29;20050;-59
2023/12/16 02:35:01;;;;;;;12.82;3.15;;;;;;;-6.80;74.04;99628.34;4937386;29;20059;-57
2023/12/16 02:37:30;;;;;;;7.82;2.75;;;;;;;-6.86;74.35;99671.94;4937652;29;20039;-54
2023/12/16 02:39:56;;;;;;;9.48;2.55;;;;;;;-6.76;74.40;99679.03;4937022;29;20054;-55
2023/12/16 02:42:22;;;;;;;12.93;2.85;;;;;;;-7.05;74.56;99622.44;4954071;29;20034;-54
2023/12/16 02:44:48;;;;;;;12.13;3.60;;;;;;;-6.73;74.73;99650.44;4953989;29;20051;-55
2023/12/16 02:47:14;;;;;;;14.63;2.97;;;;;;;-6.74;74.72;99634.44;4953979;29;20050;-57
2023/12/16 02:49:40;;;;;;;10.18;3.50;;;;;;;-6.46;74.78;99680.03;4920244;29;20055;-54
2023/12/16 02:52:06;;;;;;;12.57;3.08;;;;;;;-6.53;74.51;99662.06;4936742;29;20512;-56
2023/12/16 02:54:32;;;;;;;18.27;4.20;;;;;;;-6.43;74.76;99667.50;4953997;29;20047;-54
2023/12/16 02:56:58;;;;;;;12.25;3.17;;;;;;;-6.58;75.09;99669.50;4923853;28;20427;-57
2023/12/16 02:59:24;;;;;;;10.52;3.67;;;;;;;-6.60;75.23;99658.50;4954020;29;20098;-55
2023/12/16 03:01:50;;;;;;;12.13;3.28;;;;;;;-6.57;75.71;99657.75;4953765;29;20047;-55
2023/12/16 03:04:16;;;;;;;9.77;3.10;;;;;;;-6.57;75.60;99662.78;4936571;29;20047;-52
2023/12/16 03:06:43;;;;;;;11.93;3.08;;;;;;;-6.60;75.83;99663.56;4953703;29;20047;-57
2023/12/16 03:09:09;;;;;;;10.93;3.30;;;;;;;-6.80;75.84;99611.47;4953636;29;20102;-54
2023/12/16 03:11:35;;;;;;;13.82;3.53;;;;;;;-6.39;75.96;99663.41;4953749;29;20042;-55
2023/12/16 03:14:01;;;;;;;16.73;3.58;;;;;;;-6.30;75.92;99661.16;4936527;29;20132;-56
2023/12/16 03:16:27;;;;;;;11.88;3.72;;;;;;;-6.25;76.04;99662.16;4936616;29;20183;-60
2023/12/16 03:18:53;;;;;;;18.98;3.50;;;;;;;-6.35;76.13;99666.88;4953762;29;20040;-55
2023/12/16 03:21:19;;;;;;;9.30;3.15;;;;;;;-6.71;75.95;99624.44;4938720;29;20039;-52
2023/12/16 03:23:44;;;;;;;14.75;4.05;;;;;;;-6.40;75.94;99668.41;4936417;29;20075;-55
2023/12/16 03:26:10;;;;;;;16.90;3.35;;;;;;;-6.68;76.34;99621.13;4953433;29;20039;-56
2023/12/16 03:28:36;;;;;;;17.70;3.97;;;;;;;-6.37;76.38;99666.81;4936168;29;20047;-54
2023/12/16 03:31:03;;;;;;;18.23;5.13;;;;;;;-6.43;76.28;99664.09;4936290;29;20046;-56
2023/12/16 03:33:28;;;;;;;13.30;3.25;;;;;;;-6.48;76.20;99663.94;4920590;29;20047;-50
2023/12/16 03:35:54;;;;;;;22.48;3.95;;;;;;;-6.40;76.35;99670.94;4936598;28;20035;-54
2023/12/16 03:38:20;;;;;;;10.75;3.80;;;;;;;-6.34;76.73;99674.53;4952918;28;20070;-58
2023/12/16 03:40:46;;;;;;;15.93;4.03;;;;;;;-6.40;76.00;99679.38;4953214;29;20046;-59
2023/12/16 03:43:11;;;;;;;9.13;3.55;;;;;;;-6.39;76.47;99682.78;4920273;29;20574;-57
2023/12/16 03:45:38;;;;;;;12.77;3.25;;;;;;;-6.33;76.62;99675.41;4953385;29;20098;-56
2023/12/16 03:48:04;;;;;;;12.45;4.63;;;;;;;-6.20;76.72;99669.91;4953189;29;20427;-56
2023/12/16 03:50:30;;;;;;;13.80;4.13;;;;;;;-6.16;76.71;99671.72;4953295;29;20554;-56
2023/12/16 03:52:56;;;;;;;18.38;3.50;;;;;;;-6.04;76.33;99660.31;4952984;29;20043;-57
2023/12/16 03:55:22;;;;;;;10.82;3.70;;;;;;;-5.92;76.34;99658.97;4953029;29;20047;-53
2023/12/16 03:57:47;;;;;;;13.90;4.35;;;;;;;-6.08;76.01;99632.34;4953222;29;20035;-55
2023/12/16 04:00:13;;;;;;;14.48;4.05;;;;;;;-5.92;76.32;99657.31;4936894;29;20083;-56
2023/12/16 04:02:39;;;;;;;24.05;6.07;;;;;;;-6.05;76.67;99667.84;4953481;29;20089;-53
2023/12/16 04:05:06;;;;;;;12.80;3.85;;;;;;;-6.25;76.88;99629.28;4935745;29;20103;-52
2023/12/16 04:07:32;;;;;;;12.25;4.00;;;;;;;-6.01;76.20;99667.13;4952929;29;20070;-58
2023/12/16 04:09:59;;;;;;;12.60;3.90;;;;;;;-5.93;77.39;99685.97;4952897;29;20472;-51
2023/12/16 04:12:24;;;;;;;16.52;4.35;;;;;;;-5.92;77.17;99666.56;4935613;29;20647;-54
2023/12/16 04:14:50;;;;;;;14.95;3.75;;;;;;;-5.94;77.08;99684.22;4952668;29;20488;-53
2023/12/16 04:17:16;;;;;;;11.50;4.30;;;;;;;-6.05;77.05;99690.63;4919420;29;20039;-59
2023/12/16 04:19:52;;;;;;;18.55;4.82;;;;;;;-6.07;77.42;99692.28;4952596;29;20035;-57
2023/12/16 04:22:19;;;;;;;17.95;4.47;;;;;;;-6.36;77.83;99612.06;4919730;29;20102;-54
2023/12/16 04:24:45;;;;;;;11.88;4.20;;;;;;;-5.97;77.85;99675.69;4952607;29;20098;-58
2023/12/16 04:27:11;;;;;;;11.60;4.60;;;;;;;-6.03;78.02;99710.13;4934298;29;20447;-54
2023/12/16 04:29:37;;;;;;;14.40;4.93;;;;;;;-6.05;77.98;99699.06;4934988;29;20070;-55
2023/12/16 04:32:03;;;;;;;17.63;5.15;;;;;;;-6.04;78.55;99705.00;4935678;29;20523;-53
2023/12/16 04:34:29;;;;;;;17.17;5.50;;;;;;;-6.09;78.49;99706.53;4952537;29;20614;-52
2023/12/16 04:36:55;;;;;;;14.80;5.85;;;;;;;-6.08;78.87;99698.13;4935574;29;20094;-53
2023/12/16 04:39:20;;;;;;;11.52;4.15;;;;;;;-6.15;79.35;99694.53;4952379;29;20045;-54
2023/12/16 04:41:46;;;;;;;18.98;4.93;;;;;;;-6.27;79.38;99657.84;4935119;29;20035;-52
2023/12/16 04:44:12;;;;;;;15.43;4.93;;;;;;;-5.99;79.46;99703.47;4952294;29;20082;-54
2023/12/16 04:46:38;;;;;;;26.08;4.97;;;;;;;-6.26;80.15;99647.81;4952195;29;20047;-54
2023/12/16 04:49:03;;;;;;;15.38;4.72;;;;;;;-5.70;80.04;99711.91;4955330;28;20459;-52
2023/12/16 04:51:29;;;;;;;19.58;5.57;;;;;;;-6.25;79.66;99648.66;4951926;28;20094;-52
2023/12/16 04:53:56;;;;;;;16.20;4.75;;;;;;;-6.20;80.12;99677.50;4935485;29;20157;-57
2023/12/16 04:56:22;;;;;;;17.35;5.13;;;;;;;-5.87;80.66;99715.66;4952035;29;20035;-52
2023/12/16 04:58:48;;;;;;;15.18;5.47;;;;;;;-5.73;80.27;99727.03;4934930;29;20058;-54
2023/12/16 05:01:14;;;;;;;14.30;4.63;;;;;;;-5.87;80.55;99725.78;4935087;29;20046;-54
2023/12/16 05:03:41;;;;;;;13.70;4.90;;;;;;;-6.22;80.72;99687.56;4952194;29;20097;-56
2023/12/16 05:06:08;;;;;;;19.98;5.68;;;;;;;-5.98;80.74;99733.03;4935119;29;20523;-56
2023/12/16 05:08:34;;;;;;;21.30;5.80;;;;;;;-6.03;80.94;99737.09;4919045;29;20046;-55
2023/12/16 05:11:00;;;;;;;23.67;6.47;;;;;;;-6.31;81.42;99697.38;4934893;29;20509;-54
2023/12/16 05:13:26;;;;;;;12.35;4.63;;;;;;;-6.38;81.83;99692.09;4918733;29;20074;-54
2023/12/16 05:15:52;;;;;;;29.15;6.22;;;;;;;-6.14;81.27;99746.00;4918253;29;20078;-60
2023/12/16 05:18:18;;;;;;;29.85;5.40;;;;;;;-6.13;81.45;99746.06;4951760;29;20046;-52
2023/12/16 05:20:44;;;;;;;17.33;4.90;;;;;;;-5.98;81.50;99744.81;4934393;29;20042;-50
2023/12/16 05:23:10;;;;;;;17.50;6.10;;;;;;;-6.06;81.46;99747.09;4927980;29;20043;-50
2023/12/16 05:25:37;;;;;;;29.17;6.57;;;;;;;-5.96;81.35;99751.63;4932126;29;20158;-55
2023/12/16 05:28:03;;;;;;;20.83;5.90;;;;;;;-5.98;80.98;99748.22;4923318;29;20071;-56
2023/12/16 05:30:29;;;;;;;19.45;5.97;;;;;;;-6.06;81.52;99754.69;4906852;29;20691;-55
2023/12/16 05:32:54;;;;;;;17.33;5.18;;;;;;;-6.14;81.55;99761.19;4925592;29;20136;-54
2023/12/16 05:35:21;;;;;;;17.17;4.70;;;;;;;-6.06;82.19;99762.28;4933694;29;20050;-58
2023/12/16 05:37:47;;;;;;;20.42;5.50;;;;;;;-5.95;81.99;99788.78;4932420;29;20576;-56
2023/12/16 05:40:13;;;;;;;23.30;5.22;;;;;;;-5.78;81.76;99779.19;4933474;29;20483;-55
2023/12/16 05:42:40;;;;;;;19.52;5.32;;;;;;;-5.84;80.93;99774.78;4933152;29;20047;-54
2023/12/16 05:45:07;;;;;;;19.40;5.15;;;;;;;-5.97;81.61;99790.44;4933522;29;20526;-51
2023/12/16 05:47:34;;;;;;;13.52;4.63;;;;;;;-5.90;81.25;99791.47;4917954;29;20546;-56
2023/12/16 05:49:59;;;;;;;18.05;6.60;;;;;;;-5.83;82.28;99785.78;4933564;29;20046;-56
2023/12/16 05:52:25;;;;;;;19.50;5.82;;;;;;;-5.73;82.19;99790.31;4932710;29;20534;-54
2023/12/16 05:54:52;;;;;;;18.90;5.55;;;;;;;-5.64;81.99;99790.59;4949856;29;20042;-54
2023/12/16 05:57:18;;;;;;;14.52;6.53;;;;;;;-5.58;81.21;99790.81;4931566;29;20046;-54
2023/12/16 05:59:43;;;;;;;19.92;5.60;;;;;;;-5.53;81.65;99791.81;4948908;29;20428;-55
2023/12/16 06:02:09;;;;;;;21.75;5.40;;;;;;;-5.37;81.61;99770.34;4933660;29;20116;-57
2023/12/16 06:04:35;;;;;;;17.20;7.70;;;;;;;-5.26;81.30;99791.78;4950873;29;20276;-51
2023/12/16 06:07:01;;;;;;;16.10;5.85;;;;;;;-5.30;81.80;99795.91;4933457;29;20571;-54
2023/12/16 06:09:27;;;;;;;18.58;6.30;;;;;;;-5.49;81.19;99744.63;4950578;29;20098;-54
2023/12/16 06:11:55;;;;;;;19.42;6.70;;;;;;;-5.19;81.54;99774.31;4950522;29;20111;-54
2023/12/16 06:14:21;;;;;;;21.95;6.03;;;;;;;-5.23;81.11;99753.88;4933569;29;20050;-55
2023/12/16 06:16:47;;;;;;;20.55;6.35;;;;;;;-5.14;81.26;99785.44;4950383;29;20093;-50
2023/12/16 06:19:13;;;;;;;19.63;6.05;;;;;;;-5.25;81.02;99788.44;4950359;29;20047;-52
2023/12/16 06:21:38;;;;;;;19.17;7.20;;;;;;;-5.28;81.56;99793.41;4950635;29;20035;-49
2023/12/16 06:24:06;;;;;;;14.75;6.03;;;;;;;-5.33;80.93;99798.34;4950529;29;20047;-53
2023/12/16 06:26:31;;;;;;;21.10;6.22;;;;;;;-5.27;80.87;99788.41;4917247;29;20821;-53
2023/12/16 06:28:57;;;;;;;16.63;5.32;;;;;;;-5.26;81.08;99799.38;4933252;29;20039;-56
2023/12/16 06:31:24;;;;;;;22.30;6.18;;;;;;;-5.16;80.85;99801.38;4950405;29;20074;-54
2023/12/16 06:33:50;;;;;;;19.27;5.43;;;;;;;-5.10;81.11;99805.78;4953425;28;20074;-55
2023/12/16 06:36:16;;;;;;;19.13;5.90;;;;;;;-5.17;81.10;99797.13;4950203;29;20048;-52
2023/12/16 06:38:42;;;;;;;18.35;5.57;;;;;;;-5.35;81.02;99769.59;4950419;29;20050;-55
2023/12/16 06:41:07;;;;;;;15.73;5.18;;;;;;;-5.22;81.02;99774.19;4933272;29;20043;-53
2023/12/16 06:43:33;;;;;;;18.95;5.45;;;;;;;-5.32;81.06;99756.13;4933197;29;20467;-56
2023/12/16 06:45:59;;;;;;;21.95;6.45;;;;;;;-5.24;81.16;99752.16;4901527;29;20039;-53
2023/12/16 06:48:25;;;;;;;21.42;5.97;;;;;;;-5.24;80.49;99742.91;4950573;29;20408;-55
2023/12/16 06:50:51;;;;;;;21.40;5.68;;;;;;;-4.94;81.23;99798.69;4917650;29;20047;-52
2023/12/16 06:53:17;;;;;;;19.80;6.25;;;;;;;-4.81;80.68;99795.66;4950095;29;20483;-53
2023/12/16 06:55:44;;;;;;;14.82;5.30;;;;;;;-4.72;80.70;99802.69;4932456;29;20039;-53
2023/12/16 06:58:10;;;;;;;27.63;6.57;;;;;;;-4.81;80.11;99800.72;4933197;29;20047;-54
2023/12/16 07:00:36;;;;;;;18.00;5.32;;;;;;;-5.16;80.33;99763.38;4950248;29;20114;-55
2023/12/16 07:03:02;;;;;;;22.05;6.82;;;;;;;-4.94;80.61;99798.69;4932882;29;20503;-53
2023/12/16 07:05:28;;;;;;;20.48;6.68;;;;;;;-4.91;80.55;99791.16;4932863;29;20047;-53
2023/12/16 07:07:54;;;;;;;20.52;6.78;;;;;;;-5.17;80.40;99752.38;4932614;29;20102;-54
2023/12/16 07:10:20;;;;;;;17.50;6.90;;;;;;;-4.99;80.69;99804.44;4916448;29;20080;-51
2023/12/16 07:12:46;;;;;;;16.35;6.35;;;;;;;-4.89;80.89;99808.94;4950078;29;20066;-51
2023/12/16 07:15:12;;;;;;;18.33;5.90;;;;;;;-4.78;80.86;99812.66;4935694;29;20090;-52
2023/12/16 07:17:40;;;;;;;21.63;6.28;;;;;;;-4.80;80.38;99810.06;4922264;29;20497;-52
2023/12/16 07:20:07;;;;;;;22.48;6.50;;;;;;;-4.81;80.42;99823.56;4936852;29;20038;-51
2023/12/16 07:22:33;;;;;;;22.08;6.47;;;;;;;-4.82;81.56;99826.94;4953268;29;20146;-53
2023/12/16 07:24:59;;;;;;;22.10;5.93;;;;;;;-4.82;80.88;99834.53;4936306;29;20481;-56
2023/12/16 07:27:25;;;;;;;15.88;5.75;;;;;;;-4.80;80.60;99829.50;4935926;29;20039;-54
2023/12/16 07:29:52;;;;;;;21.23;5.78;;;;;;;-4.74;81.09;99829.66;4952965;29;20039;-52
2023/12/16 07:32:19;;;;;;;23.05;6.68;;;;;;;-4.73;80.98;99828.84;4920073;29;20043;-55
2023/12/16 07:34:45;;;;;;;17.50;6.03;;;;;;;-4.77;81.15;99827.06;4918690;28;20039;-54
2023/12/16 07:37:11;;;;;;;20.98;7.47;;;;;;;-4.69;81.40;99823.06;4948380;28;20404;-53
2023/12/16 07:39:36;;;;;;;16.40;6.40;;;;;;;-4.58;81.61;99836.03;4933947;29;20047;-55
2023/12/16 07:42:02;;;;;;;20.63;6.47;;;;;;;-4.54;81.47;99830.22;4934107;29;20047;-53
2023/12/16 07:44:28;;;;;;;23.60;5.90;;;;;;;-4.46;81.07;99831.31;4933848;29;20074;-57
2023/12/16 07:46:55;;;;;;;23.63;6.47;;;;;;;-4.40;81.42;99826.41;4901001;29;20456;-54
2023/12/16 07:49:25;;;;;;;20.27;6.10;;;;;;;-4.41;80.96;99819.63;4917166;29;20043;-54
2023/12/16 07:51:55;;;;;;;17.52;6.03;;;;;;;-4.56;81.04;99792.16;4933716;29;20050;-51
2023/12/16 07:54:24;;;;;;;19.52;6.57;;;;;;;-4.36;81.35;99829.06;4916824;29;20039;-54
2023/12/16 07:56:51;;;;;;;19.60;6.80;;;;;;;-4.25;81.24;99836.13;4933785;29;20122;-53
2023/12/16 07:59:17;;;;;;;20.50;6.50;;;;;;;-4.09;80.87;99835.69;4916582;29;20143;-55
2023/12/16 08:01:49;;;;;;;18.67;6.50;;;;;;;-4.02;81.15;99837.56;4916946;29;20039;-55
2023/12/16 08:04:15;;;;;;;12.60;4.97;;;;;;;-4.04;80.67;99837.53;4901040;29;20520;-57
2023/12/16 08:06:40;;;;;;;23.17;6.50;;;;;;;-4.10;80.99;99832.31;4934170;29;20075;-55
2023/12/16 08:09:07;;;;;;;16.00;6.20;;;;;;;-4.14;80.68;99837.25;4934381;29;20369;-52
2023/12/16 08:11:34;;;;;;;18.50;7.30;;;;;;;-4.30;81.39;99819.09;4917355;29;20050;-54
2023/12/16 08:13:59;;;;;;;23.35;6.78;;;;;;;-4.15;81.45;99840.63;4917606;29;20516;-57
2023/12/16 08:16:25;;;;;;;25.63;7.03;;;;;;;-4.08;81.16;99839.97;4910426;29;20038;-54
2023/12/16 08:18:51;;;;;;;19.17;6.93;;;;;;;-4.09;81.10;99839.09;4953303;29;20067;-53
2023/12/16 08:21:21;;;;;;;26.33;6.32;;;;;;;-4.30;81.52;99800.47;4920342;29;20137;-56
2023/12/16 08:23:47;;;;;;;20.02;6.93;;;;;;;-4.14;81.75;99844.88;4952291;29;20045;-54
2023/12/16 08:26:13;;;;;;;21.63;6.28;;;;;;;-4.06;81.98;99841.72;4934267;29;20054;-56
2023/12/16 08:28:42;;;;;;;23.30;6.25;;;;;;;-3.93;82.06;99836.16;4952142;29;20047;-55
2023/12/16 08:31:08;;;;;;;18.40;6.10;;;;;;;-3.89;82.33;99812.53;4952187;29;20050;-57
2023/12/16 08:33:34;;;;;;;15.65;5.50;;;;;;;-3.66;82.06;99838.50;4952113;29;20038;-55
2023/12/16 08:36:00;;;;;;;18.80;5.82;;;;;;;-3.60;81.44;99828.47;4951808;29;20043;-55
2023/12/16 08:38:26;;;;;;;19.67;6.68;;;;;;;-3.68;81.75;99827.47;4951968;29;20094;-57
2023/12/16 08:40:55;;;;;;;17.10;6.60;;;;;;;-3.70;82.08;99826.53;4919152;29;20083;-55
2023/12/16 08:43:21;;;;;;;22.23;6.90;;;;;;;-3.45;82.05;99835.59;4952060;29;20046;-56
2023/12/16 08:45:47;;;;;;;23.92;6.13;;;;;;;-3.28;82.19;99829.25;4934504;29;20061;-58
2023/12/16 08:48:13;;;;;;;15.13;5.25;;;;;;;-3.29;81.70;99827.53;4918985;29;20035;-57
2023/12/16 08:50:39;;;;;;;19.90;6.53;;;;;;;-3.18;81.55;99827.78;4952035;29;20563;-56
2023/12/16 08:53:09;;;;;;;17.52;6.60;;;;;;;-3.33;81.81;99792.69;4952337;29;20134;-55
2023/12/16 08:55:34;;;;;;;12.98;5.35;;;;;;;-3.08;81.67;99800.03;4952366;29;20054;-55
2023/12/16 08:58:00;;;;;;;18.65;6.72;;;;;;;-3.07;81.22;99798.34;4952385;29;20050;-56
2023/12/16 09:00:26;;;;;;;16.50;7.05;;;;;;;-2.96;80.99;99804.53;4934992;29;20047;-58
2023/12/16 09:02:51;;;;;;;23.85;6.53;;;;;;;-2.92;81.28;99834.28;4934605;29;20046;-54
2023/12/16 09:05:19;;;;;;;18.65;6.07;;;;;;;-2.90;81.37;99832.66;4935223;29;20839;-56
2023/12/16 09:07:45;;;;;;;16.42;6.40;;;;;;;-2.88;81.34;99832.69;4952199;29;20499;-55
2023/12/16 09:10:12;;;;;;;19.83;7.15;;;;;;;-2.83;81.14;99829.44;4902626;29;20047;-56
2023/12/16 09:12:38;;;;;;;18.90;6.38;;;;;;;-2.90;81.01;99837.75;4933835;29;20039;-51
2023/12/16 09:15:04;;;;;;;21.08;7.50;;;;;;;-2.78;81.08;99832.94;4934373;29;20558;-54
2023/12/16 09:17:31;;;;;;;22.10;6.95;;;;;;;-2.66;80.94;99833.16;4934338;29;20552;-52
2023/12/16 09:19:57;;;;;;;20.98;7.00;;;;;;;-2.41;80.56;99832.00;4951686;29;20203;-52
2023/12/16 09:22:23;;;;;;;23.27;7.07;;;;;;;-2.30;80.13;99834.72;4951326;28;20046;-55
2023/12/16 09:24:49;;;;;;;18.13;6.28;;;;;;;-2.16;80.03;99835.84;4951407;29;20072;-50
2023/12/16 09:27:15;;;;;;;20.88;6.85;;;;;;;-2.13;79.75;99835.91;4951128;29;20523;-55
2023/12/16 09:29:40;;;;;;;21.60;6.82;;;;;;;-2.09;79.71;99842.75;4951081;29;20509;-54
2023/12/16 09:32:07;;;;;;;12.55;5.78;;;;;;;-2.21;79.66;99843.41;4918275;29;20134;-57
2023/12/16 09:34:33;;;;;;;26.52;6.88;;;;;;;-2.27;79.70;99840.75;4933764;29;20046;-55
2023/12/16 09:36:58;;;;;;;16.42;6.50;;;;;;;-2.15;79.37;99835.03;4950516;28;20105;-56
2023/12/16 09:39:24;;;;;;;19.52;5.97;;;;;;;-2.08;79.44;99838.53;4950722;29;20122;-55
2023/12/16 09:41:51;;;;;;;15.85;6.00;;;;;;;-1.91;79.43;99835.47;4950939;29;20050;-56
2023/12/16 09:44:19;;;;;;;20.42;5.97;;;;;;;-1.95;78.78;99840.50;4951068;29;20545;-56
2023/12/16 09:46:46;;;;;;;20.00;5.82;;;;;;;-1.72;79.27;99831.53;4950915;29;20134;-57
2023/12/16 09:49:15;;;;;;;15.20;6.63;;;;;;;-1.56;78.49;99850.50;4950683;29;20047;-56
2023/12/16 09:51:42;;;;;;;17.48;6.18;;;;;;;-1.77;78.26;99845.88;4933437;29;20071;-57
2023/12/16 09:54:08;;;;;;;15.05;5.15;;;;;;;-2.01;78.67;99843.78;4950777;29;20110;-55
2023/12/16 09:56:35;;;;;;;13.98;5.90;;;;;;;-2.18;78.88;99840.06;4933618;29;20511;-56
2023/12/16 09:59:03;;;;;;;20.05;6.15;;;;;;;-2.06;79.05;99839.44;4933415;29;20039;-58
2023/12/16 10:01:29;;;;;;;15.88;5.70;;;;;;;-1.94;78.84;99840.53;4950822;29;20053;-52
2023/12/16 10:03:56;;;;;;;11.85;4.97;;;;;;;-1.98;79.02;99840.41;4933773;29;20438;-55
2023/12/16 10:06:22;;;;;;;16.23;6.05;;;;;;;-1.74;79.18;99844.28;4917824;29;20035;-54
2023/12/16 10:08:48;;;;;;;15.20;5.60;;;;;;;-1.67;79.02;99842.66;4933407;29;20534;-54
2023/12/16 10:11:15;;;;;;;15.35;5.90;;;;;;;-1.80;78.70;99836.53;4950406;29;20423;-56
2023/12/16 10:14:00;;;;;;;10.85;4.82;;;;;;;-1.86;79.35;99836.41;4933331;29;20090;-53
2023/12/16 10:16:26;;;;;;;11.52;5.25;;;;;;;-1.81;79.23;99851.78;4933411;29;20401;-53
2023/12/16 10:18:57;;;;;;;15.52;5.22;;;;;;;-1.89;79.03;99843.16;4950780;29;20054;-55
2023/12/16 10:21:27;;;;;;;15.90;4.75;;;;;;;-1.77;78.95;99844.22;4950805;29;20523;-56
2023/12/16 10:23:55;;;;;;;10.07;4.90;;;;;;;-1.78;78.88;99845.03;4918147;29;20050;-56
2023/12/16 10:26:22;;;;;;;14.48;5.25;;;;;;;-1.65;79.14;99846.13;4933618;29;20039;-56
2023/12/16 10:28:48;;;;;;;13.27;4.70;;;;;;;-1.57;78.76;99848.81;4933760;29;20138;-56
2023/12/16 10:31:15;;;;;;;11.40;4.70;;;;;;;-1.67;78.97;99844.38;4916074;29;20047;-54
2023/12/16 10:33:42;;;;;;;11.00;4.60;;;;;;;-1.57;79.10;99841.97;4900854;29;20102;-58
2023/12/16 10:36:08;;;;;;;12.75;4.88;;;;;;;-1.69;79.09;99854.53;4932846;29;20042;-56
2023/12/16 10:38:34;;;;;;;11.30;5.07;;;;;;;-1.86;79.15;99841.50;4916939;29;20131;-54
2023/12/16 10:41:00;;;;;;;18.42;5.43;;;;;;;-1.77;79.49;99853.53;4932588;29;20137;-55
2023/12/16 10:43:26;;;;;;;13.32;4.40;;;;;;;-1.76;79.53;99845.94;4949892;29;20428;-54
2023/12/16 10:45:53;;;;;;;10.35;4.68;;;;;;;-1.63;79.47;99858.91;4949449;28;21394;-55
2023/12/16 10:48:25;;;;;;;8.95;4.10;;;;;;;-1.68;79.68;99853.72;4929936;29;20058;-56
2023/12/16 10:50:51;;;;;;;10.35;4.90;;;;;;;-1.69;79.62;99854.53;4920267;29;20226;-56
2023/12/16 10:53:26;;;;;;;11.20;4.95;;;;;;;-2.05;79.70;99816.53;4904017;29;20059;-55
2023/12/16 10:55:59;;;;;;;10.15;5.03;;;;;;;-1.88;80.22;99849.94;4951170;29;20038;-56
2023/12/16 10:58:27;;;;;;;13.00;4.72;;;;;;;-1.81;80.22;99855.19;4926824;29;20039;-56
2023/12/16 11:01:01;;;;;;;16.33;4.50;;;;;;;-1.77;80.53;99849.31;4922432;29;20047;-55
2023/12/16 11:03:35;;;;;;;11.20;4.85;;;;;;;-1.86;80.42;99840.63;4940099;29;20055;-55
2023/12/16 11:06:12;;;;;;;10.85;4.93;;;;;;;-2.11;80.65;99807.94;4950153;29;20727;-52
2023/12/16 11:08:39;;;;;;;9.45;4.65;;;;;;;-1.87;80.61;99838.91;4936131;29;20039;-54
2023/12/16 11:11:05;;;;;;;12.77;4.80;;;;;;;-1.86;80.74;99838.97;4953137;29;20035;-52
2023/12/16 11:13:30;;;;;;;10.15;4.78;;;;;;;-1.92;81.08;99837.97;4935407;29;20427;-53
2023/12/16 11:16:03;;;;;;;9.82;4.45;;;;;;;-1.71;80.97;99849.41;4919877;29;20913;-52
2023/12/16 11:18:30;;;;;;;9.10;4.43;;;;;;;-1.71;80.62;99836.66;4936407;29;20122;-52
2023/12/16 11:21:01;;;;;;;15.48;4.55;;;;;;;-1.76;81.07;99842.50;4954579;29;20039;-52
2023/12/16 11:23:29;;;;;;;10.55;4.65;;;;;;;-1.58;81.16;99834.34;4938606;29;20475;-54